LGKF/EFL METAR and TAF weather

Enter ICAO airport designator
Station Type Date Time Source
LGKF METAR 2021/07/26 16:50 UTC NOAA

LGKF 261650Z 31008KT CAVOK 30/19 Q1015


Station Type Date Time Source
LGKF Decoded METAR 2021/07/26 16:50 UTC NOAA

Kefalhnia Airport , Greece (LGKF) 38-07N 020-30E 22M
Jul 26, 2021 - 12:50 PM EDT / 2021.07.26 1650 UTC
Wind: from the NW (310 degrees) at 9 MPH (8 KT):0
Visibility: greater than 7 mile(s):0
Temperature: 86 F (30 C)
Dew Point: 66 F (19 C)
Relative Humidity: 51%
Pressure (altimeter): 29.97 in. Hg (1015 hPa)
ob: LGKF 261650Z 31008KT CAVOK 30/19 Q1015
cycle: 17

Station Type Date Time Source
LGKF TAF 2011/03/20 15:06 UTC NOAA

TAF LGKF 201400Z 2015/2103 05012KT 9999 FEW020 SCT080 PROB30
TEMPO 2015/2003 6000 RA SCT020 BKN060 PROB30
TEMPO 2015/2021 4000 TSRA SCT015 FEW018CB BKN025

Example: see airport list